createdAt,value
2023-01-23T00:01:23.573Z,57.59
2023-01-23T00:03:50.359Z,58.19
2023-01-23T00:06:18.169Z,58.53
2023-01-23T00:08:46.513Z,58.34
2023-01-23T00:11:20.086Z,57.96
2023-01-23T00:13:46.806Z,58.03
2023-01-23T00:16:18.074Z,58.05
2023-01-23T00:18:45.207Z,57.91
2023-01-23T00:21:15.762Z,57.50
2023-01-23T00:23:44.843Z,57.53
2023-01-23T00:26:16.768Z,57.53
2023-01-23T00:28:45.331Z,57.65
2023-01-23T00:31:25.352Z,57.42
2023-01-23T00:34:00.606Z,58.13
2023-01-23T00:36:36.341Z,57.63
2023-01-23T00:39:06.729Z,57.44
2023-01-23T00:41:33.475Z,56.86
2023-01-23T00:44:00.112Z,56.55
2023-01-23T00:46:26.971Z,56.70
2023-01-23T00:48:53.662Z,56.66
2023-01-23T00:51:20.458Z,57.16
2023-01-23T00:53:47.157Z,56.89
2023-01-23T00:56:13.810Z,56.96
2023-01-23T00:58:43.505Z,57.26
2023-01-23T01:01:10.911Z,57.46
2023-01-23T01:03:39.018Z,57.72
2023-01-23T01:06:08.700Z,58.38
2023-01-23T01:08:35.648Z,57.70
2023-01-23T01:11:02.667Z,57.36
2023-01-23T01:13:30.960Z,58.09
2023-01-23T01:15:57.672Z,58.19
2023-01-23T01:18:24.509Z,57.60
2023-01-23T01:20:51.385Z,57.11
2023-01-23T01:23:19.206Z,57.32
2023-01-23T01:25:46.643Z,57.79
2023-01-23T01:28:14.028Z,57.82
2023-01-23T01:30:42.073Z,58.12
2023-01-23T01:33:08.869Z,58.08
2023-01-23T01:35:35.430Z,57.78
2023-01-23T01:38:02.304Z,58.18
2023-01-23T01:40:32.693Z,57.96
2023-01-23T01:43:02.636Z,57.38
2023-01-23T01:46:14.972Z,56.70
2023-01-23T01:49:18.737Z,56.93
2023-01-23T01:51:59.706Z,57.24
2023-01-23T01:54:39.220Z,56.99
2023-01-23T01:57:27.240Z,57.18
2023-01-23T02:00:11.691Z,57.72
2023-01-23T02:02:47.514Z,56.83
2023-01-23T02:05:28.208Z,57.52
2023-01-23T02:08:19.459Z,57.33
2023-01-23T02:10:47.274Z,57.09
2023-01-23T02:13:36.097Z,57.03
2023-01-23T02:16:12.358Z,56.96
2023-01-23T02:18:44.704Z,57.13
2023-01-23T02:21:13.909Z,57.05
2023-01-23T02:24:03.080Z,56.96
2023-01-23T02:26:36.777Z,57.17
2023-01-23T02:29:05.308Z,57.18
2023-01-23T02:31:35.469Z,57.31
2023-01-23T02:34:02.329Z,57.51
2023-01-23T02:36:30.643Z,57.41
2023-01-23T02:39:19.769Z,57.24
2023-01-23T02:41:51.674Z,56.95
2023-01-23T02:44:25.261Z,56.96
2023-01-23T02:46:54.684Z,56.79
2023-01-23T02:49:22.344Z,57.07
2023-01-23T02:51:51.280Z,57.10
2023-01-23T02:54:18.805Z,57.89
2023-01-23T02:56:45.891Z,57.65
2023-01-23T02:59:31.399Z,57.50
2023-01-23T03:01:58.847Z,57.95
2023-01-23T03:04:25.856Z,58.06
2023-01-23T03:06:52.967Z,57.79
2023-01-23T03:09:19.799Z,57.86
2023-01-23T03:11:47.397Z,58.30
2023-01-23T03:14:17.823Z,58.46
2023-01-23T03:21:12.692Z,58.27
2023-01-23T03:23:41.915Z,58.69
2023-01-23T03:26:08.530Z,58.38
2023-01-23T03:28:54.238Z,58.70
2023-01-23T03:31:20.976Z,58.46
2023-01-23T03:33:48.841Z,58.46
2023-01-23T03:36:15.581Z,59.01
2023-01-23T03:39:04.995Z,59.53
2023-01-23T03:41:32.534Z,60.34
2023-01-23T03:44:02.433Z,60.05
2023-01-23T03:46:29.351Z,60.46
2023-01-23T03:48:56.169Z,60.79
2023-01-23T03:51:22.891Z,60.85
2023-01-23T03:53:50.423Z,60.15
2023-01-23T03:56:17.099Z,60.51
2023-01-23T03:58:43.802Z,60.56
2023-01-23T04:01:13.318Z,60.98
2023-01-23T04:03:41.239Z,61.09
2023-01-23T04:06:07.993Z,60.77
2023-01-23T04:08:34.544Z,59.83
2023-01-23T04:11:09.893Z,60.23
2023-01-23T04:13:37.439Z,60.08
2023-01-23T04:16:05.534Z,59.58
2023-01-23T04:18:33.198Z,60.80
2023-01-23T04:21:00.654Z,59.97
2023-01-23T04:23:27.371Z,60.63
2023-01-23T04:25:54.199Z,60.29
2023-01-23T04:28:21.261Z,60.65
2023-01-23T04:30:50.597Z,61.52
2023-01-23T04:33:28.834Z,62.01
2023-01-23T04:35:56.896Z,61.85
2023-01-23T04:38:26.932Z,62.21
2023-01-23T04:40:53.655Z,61.11
2023-01-23T04:43:20.706Z,62.21
2023-01-23T04:45:51.676Z,63.68
2023-01-23T04:48:46.809Z,61.75
2023-01-23T04:51:14.922Z,61.26
2023-01-23T04:53:42.491Z,61.64
2023-01-23T04:56:09.075Z,61.44
2023-01-23T04:58:36.151Z,61.71
2023-01-23T05:01:06.087Z,61.65
2023-01-23T05:03:35.167Z,61.42
2023-01-23T05:06:01.945Z,61.51
2023-01-23T05:08:28.628Z,61.40
2023-01-23T05:11:06.901Z,61.90
2023-01-23T05:13:33.784Z,61.86
2023-01-23T05:16:01.302Z,61.85
2023-01-23T05:18:29.861Z,62.21
2023-01-23T05:20:57.185Z,62.42
2023-01-23T05:23:24.027Z,62.66
2023-01-23T05:25:51.170Z,63.02
2023-01-23T05:28:17.770Z,63.11
2023-01-23T05:30:48.084Z,63.80
2023-01-23T05:33:23.180Z,63.42
2023-01-23T05:35:50.234Z,62.86
2023-01-23T05:38:16.903Z,62.91
2023-01-23T05:40:43.813Z,62.83
2023-01-23T05:43:15.234Z,62.77
2023-01-23T05:46:01.910Z,63.57
2023-01-23T05:48:50.351Z,63.45
2023-01-23T05:51:18.396Z,63.75
2023-01-23T05:53:45.498Z,64.10
2023-01-23T05:56:12.573Z,64.15
2023-01-23T05:58:48.525Z,64.09
2023-01-23T06:01:25.431Z,63.96
2023-01-23T06:04:10.903Z,63.77
2023-01-23T06:06:52.464Z,64.21
2023-01-23T06:09:19.225Z,64.10
2023-01-23T06:11:45.965Z,64.87
2023-01-23T06:14:12.529Z,64.57
2023-01-23T06:16:39.596Z,64.88
2023-01-23T06:19:07.747Z,64.93
2023-01-23T06:21:35.772Z,65.07
2023-01-23T06:24:04.592Z,65.06
2023-01-23T06:26:32.512Z,65.28
2023-01-23T06:28:59.137Z,65.67
2023-01-23T06:31:26.655Z,66.43
2023-01-23T06:33:54.939Z,65.82
2023-01-23T06:36:26.595Z,66.14
2023-01-23T06:38:53.427Z,66.28
2023-01-23T06:41:24.499Z,66.76
2023-01-23T06:43:53.874Z,66.99
2023-01-23T06:46:23.017Z,67.32
2023-01-23T06:48:52.549Z,67.37
2023-01-23T06:51:19.321Z,67.06
2023-01-23T06:53:46.772Z,67.25
2023-01-23T06:56:13.649Z,67.52
2023-01-23T06:58:45.367Z,67.39
2023-01-23T07:01:19.838Z,67.66
2023-01-23T07:04:12.175Z,68.01
2023-01-23T07:06:39.807Z,68.07
2023-01-23T07:09:07.257Z,68.24
2023-01-23T07:11:37.087Z,68.19
2023-01-23T07:14:05.349Z,67.62
2023-01-23T07:16:35.252Z,67.37
2023-01-23T07:19:02.721Z,67.06
2023-01-23T07:21:32.548Z,66.86
2023-01-23T07:23:59.269Z,67.41
2023-01-23T07:26:26.119Z,67.92
2023-01-23T07:28:54.085Z,68.32
2023-01-23T07:31:20.809Z,68.22
2023-01-23T07:33:47.667Z,68.44
2023-01-23T07:36:14.868Z,68.38
2023-01-23T07:38:41.677Z,68.44
2023-01-23T07:41:09.029Z,68.90
2023-01-23T07:43:35.759Z,69.10
2023-01-23T07:46:02.844Z,69.08
2023-01-23T07:48:29.702Z,69.39
2023-01-23T07:50:56.725Z,69.54
2023-01-23T07:53:23.405Z,69.74
2023-01-23T07:55:50.085Z,69.62
2023-01-23T07:58:16.592Z,69.44
2023-01-23T08:00:43.386Z,69.49
2023-01-23T08:03:10.159Z,69.57
2023-01-23T08:05:36.773Z,69.47
2023-01-23T08:08:13.022Z,69.59
2023-01-23T08:10:40.955Z,69.38
2023-01-23T08:13:08.017Z,69.77
2023-01-23T08:15:34.645Z,69.97
2023-01-23T08:18:01.292Z,70.40
2023-01-23T08:20:28.167Z,70.32
2023-01-23T08:22:55.894Z,70.27
2023-01-23T08:25:22.467Z,70.07
2023-01-23T08:27:49.279Z,69.99
2023-01-23T08:30:16.471Z,70.47
2023-01-23T08:32:43.171Z,70.55
2023-01-23T08:35:10.096Z,70.84
2023-01-23T08:37:37.970Z,71.07
2023-01-23T08:40:05.522Z,71.33
2023-01-23T08:42:32.193Z,71.25
2023-01-23T08:44:58.875Z,71.76
2023-01-23T08:47:25.523Z,71.73
2023-01-23T08:49:52.289Z,71.75
2023-01-23T08:52:18.939Z,72.26
2023-01-23T08:54:45.466Z,71.93
2023-01-23T08:57:12.208Z,72.39
2023-01-23T08:59:38.729Z,71.95
2023-01-23T09:02:05.454Z,71.80
2023-01-23T09:04:32.240Z,71.55
2023-01-23T09:06:59.006Z,71.91
2023-01-23T09:09:25.568Z,71.90
2023-01-23T09:11:52.331Z,71.95
2023-01-23T09:14:19.034Z,71.83
2023-01-23T09:16:45.559Z,72.10
2023-01-23T09:19:12.915Z,71.60
2023-01-23T09:21:40.062Z,71.43
2023-01-23T09:24:06.799Z,71.63
2023-01-23T09:26:33.374Z,71.23
2023-01-23T09:29:00.101Z,71.80
2023-01-23T09:31:26.790Z,71.07
2023-01-23T09:33:53.543Z,71.27
2023-01-23T09:36:25.386Z,71.04
2023-01-23T09:39:01.146Z,71.53
2023-01-23T09:41:29.347Z,71.54
2023-01-23T09:44:03.117Z,71.41
2023-01-23T09:46:45.172Z,71.99
2023-01-23T09:49:28.960Z,71.85
2023-01-23T09:52:12.260Z,71.46
2023-01-23T09:54:43.316Z,71.13
2023-01-23T09:57:27.791Z,71.32
2023-01-23T10:00:03.952Z,71.30
2023-01-23T10:02:31.302Z,71.35
2023-01-23T10:04:59.737Z,71.94
2023-01-23T10:07:36.215Z,72.01
2023-01-23T10:10:15.257Z,72.20
2023-01-23T10:13:04.871Z,72.15
2023-01-23T10:15:53.768Z,72.06
2023-01-23T10:18:28.293Z,72.38
2023-01-23T10:21:00.779Z,72.13
2023-01-23T10:23:35.914Z,72.28
2023-01-23T10:26:04.306Z,72.03
2023-01-23T10:28:39.019Z,72.05
2023-01-23T10:31:12.461Z,72.18
2023-01-23T10:33:41.940Z,72.30
2023-01-23T10:36:23.975Z,72.39
2023-01-23T10:39:05.140Z,72.45
2023-01-23T10:41:33.836Z,72.39
2023-01-23T10:44:01.361Z,72.08
2023-01-23T10:46:33.410Z,72.31
2023-01-23T10:49:01.611Z,72.61
2023-01-23T10:51:35.195Z,72.54
2023-01-23T10:54:17.029Z,72.59
2023-01-23T10:57:07.742Z,72.32
2023-01-23T10:59:39.510Z,72.51
2023-01-23T11:02:16.021Z,72.28
2023-01-23T11:04:46.294Z,72.42
2023-01-23T11:07:24.979Z,72.49
2023-01-23T11:09:53.649Z,72.76
2023-01-23T11:12:21.972Z,72.10
2023-01-23T11:14:49.825Z,72.26
2023-01-23T11:17:20.668Z,72.54
2023-01-23T11:19:51.712Z,72.27
2023-01-23T11:22:30.407Z,71.94
2023-01-23T11:24:58.161Z,71.97
2023-01-23T11:27:28.403Z,72.17
2023-01-23T11:30:25.181Z,72.04
2023-01-23T11:33:00.016Z,72.18
2023-01-23T11:36:00.747Z,72.38
2023-01-23T11:38:34.476Z,72.41
2023-01-23T11:41:04.551Z,72.51
2023-01-23T11:43:31.820Z,72.84
2023-01-23T11:46:17.132Z,72.66
2023-01-23T11:49:08.778Z,72.60
2023-01-23T11:51:49.491Z,73.15
2023-01-23T11:54:31.249Z,72.78
2023-01-23T11:57:27.982Z,72.71
2023-01-23T12:00:33.457Z,72.65
2023-01-23T12:03:12.224Z,72.40
2023-01-23T12:05:46.158Z,72.01
2023-01-23T12:08:32.103Z,71.87
2023-01-23T12:11:18.143Z,72.18
2023-01-23T12:14:12.703Z,72.27
2023-01-23T12:17:25.038Z,72.00
2023-01-23T12:20:16.786Z,71.67
2023-01-23T12:23:20.528Z,71.87
2023-01-23T12:26:06.968Z,71.63
2023-01-23T12:28:59.697Z,71.28
2023-01-23T12:31:41.043Z,71.07
2023-01-23T12:34:23.454Z,71.02
2023-01-23T12:37:10.194Z,71.04
2023-01-23T12:40:08.582Z,70.83
2023-01-23T12:42:43.046Z,69.94
2023-01-23T12:45:20.804Z,69.35
2023-01-23T12:47:58.309Z,69.05
2023-01-23T12:50:51.226Z,68.91
2023-01-23T12:53:23.025Z,68.23
2023-01-23T12:55:58.280Z,67.94
2023-01-23T12:58:28.315Z,67.56
2023-01-23T13:01:06.984Z,66.69
2023-01-23T13:08:10.501Z,66.00
2023-01-23T13:11:33.971Z,65.87
2023-01-23T13:14:01.822Z,66.34
2023-01-23T13:16:31.987Z,66.43
2023-01-23T13:19:19.968Z,66.99
2023-01-23T13:22:19.088Z,67.20
2023-01-23T13:25:12.737Z,67.21
2023-01-23T13:27:45.587Z,66.88
2023-01-23T13:30:31.686Z,66.89
2023-01-23T13:33:07.509Z,66.70
2023-01-23T13:35:40.276Z,66.28
2023-01-23T13:38:22.313Z,66.55
2023-01-23T13:41:18.665Z,66.79
2023-01-23T13:43:55.887Z,66.48
2023-01-23T14:22:09.744Z,65.83
2023-01-23T14:24:53.287Z,65.48
2023-01-23T14:27:41.565Z,64.50
2023-01-23T14:30:18.874Z,63.81
2023-01-23T14:41:11.589Z,65.52
2023-01-23T14:43:40.655Z,65.05
2023-01-23T14:46:35.677Z,65.26
2023-01-23T14:49:05.459Z,65.68
2023-01-23T14:51:32.186Z,66.03
2023-01-23T14:53:58.782Z,65.99
2023-01-23T14:56:29.038Z,66.10
2023-01-23T14:58:58.471Z,66.08
2023-01-23T15:01:27.276Z,65.44
2023-01-23T15:04:00.764Z,65.17
2023-01-23T15:06:31.559Z,65.59
2023-01-23T15:09:17.784Z,66.16
2023-01-23T15:11:45.638Z,67.05
2023-01-23T15:14:37.525Z,67.42
2023-01-23T15:17:15.119Z,67.57
2023-01-23T15:19:41.833Z,67.27
2023-01-23T15:22:28.749Z,66.93
2023-01-23T15:24:56.737Z,66.78
2023-01-23T15:27:32.084Z,66.23
2023-01-23T15:30:32.884Z,66.04
2023-01-23T15:33:07.426Z,65.71
2023-01-23T15:35:35.818Z,65.77
2023-01-23T15:38:05.835Z,65.53
2023-01-23T15:40:36.797Z,65.55
2023-01-23T15:43:10.231Z,65.15
2023-01-23T15:45:36.970Z,64.86
2023-01-23T15:48:03.941Z,65.13
2023-01-23T15:50:30.671Z,65.21
2023-01-23T15:52:57.372Z,65.69
2023-01-23T15:55:26.637Z,65.65
2023-01-23T15:57:54.489Z,65.08
2023-01-23T16:00:21.411Z,65.24
2023-01-23T16:02:56.364Z,65.31
2023-01-23T16:09:40.493Z,64.86
2023-01-23T16:12:16.759Z,64.46
2023-01-23T16:14:43.467Z,64.17
2023-01-23T16:17:16.776Z,64.73
2023-01-23T16:19:44.257Z,65.85
2023-01-23T16:22:22.562Z,64.63
2023-01-23T16:24:49.859Z,64.07
2023-01-23T16:27:18.652Z,64.42
2023-01-23T16:29:46.552Z,64.10
2023-01-23T16:32:13.402Z,63.52
2023-01-23T16:34:40.140Z,63.62
2023-01-23T16:37:11.355Z,63.45
2023-01-23T16:39:38.262Z,63.59
2023-01-23T16:42:05.219Z,63.43
2023-01-23T16:44:32.049Z,63.72
2023-01-23T16:46:58.688Z,63.32
2023-01-23T16:53:52.701Z,63.49
2023-01-23T16:56:32.972Z,63.07
2023-01-23T16:59:00.261Z,62.86
2023-01-23T17:01:28.317Z,62.39
2023-01-23T17:04:03.104Z,61.93
2023-01-23T17:06:30.339Z,61.66
2023-01-23T17:08:56.974Z,61.76
2023-01-23T17:11:26.547Z,61.83
2023-01-23T17:13:58.671Z,62.09
2023-01-23T17:16:27.871Z,62.40
2023-01-23T17:18:57.387Z,62.29
2023-01-23T17:21:27.836Z,62.33
2023-01-23T17:23:54.501Z,62.46
2023-01-23T17:26:21.082Z,62.44
2023-01-23T17:28:48.206Z,62.82
2023-01-23T17:31:24.405Z,63.13
2023-01-23T17:33:55.784Z,63.77
2023-01-23T17:36:22.723Z,64.22
2023-01-23T17:38:52.664Z,64.83
2023-01-23T17:41:19.337Z,64.80
2023-01-23T17:43:48.433Z,64.39
2023-01-23T17:46:24.116Z,64.23
2023-01-23T17:48:50.875Z,64.34
2023-01-23T17:51:19.689Z,64.25
2023-01-23T17:53:47.223Z,64.35
2023-01-23T17:56:14.133Z,64.40
2023-01-23T17:58:41.299Z,64.41
2023-01-23T18:05:28.641Z,63.76
2023-01-23T18:07:56.010Z,64.40
2023-01-23T18:10:28.440Z,64.24
2023-01-23T18:13:08.723Z,63.72
2023-01-23T18:16:04.343Z,63.12
2023-01-23T18:18:33.356Z,62.46
2023-01-23T18:21:02.280Z,62.00
2023-01-23T18:23:32.209Z,61.55
2023-01-23T18:26:04.866Z,61.43
2023-01-23T18:28:35.886Z,60.93
2023-01-23T18:36:01.172Z,61.14
2023-01-23T18:42:32.306Z,60.53
2023-01-23T18:45:03.479Z,60.33
2023-01-23T18:47:30.391Z,59.98
2023-01-23T18:49:57.567Z,59.69
2023-01-23T18:52:47.877Z,60.09
2023-01-23T18:55:49.976Z,59.59
2023-01-23T18:58:29.882Z,59.64
2023-01-23T19:01:16.232Z,59.96
2023-01-23T19:03:45.008Z,60.28
2023-01-23T19:06:24.038Z,60.09
2023-01-23T19:08:53.652Z,60.90
2023-01-23T19:11:32.790Z,61.95
2023-01-23T19:14:21.534Z,62.20
2023-01-23T19:16:58.833Z,61.84
2023-01-23T19:19:40.489Z,61.86
2023-01-23T19:22:12.477Z,62.11
2023-01-23T19:24:39.444Z,62.22
2023-01-23T19:27:20.332Z,62.13
2023-01-23T19:29:47.156Z,62.22
2023-01-23T19:32:14.148Z,62.22
2023-01-23T19:34:43.080Z,61.65
2023-01-23T19:37:09.767Z,61.63
2023-01-23T19:39:36.300Z,61.26
2023-01-23T19:42:03.056Z,60.92
2023-01-23T19:44:30.760Z,60.57
2023-01-23T19:46:57.604Z,60.27
2023-01-23T19:49:25.367Z,60.18
2023-01-23T19:51:52.145Z,59.85
2023-01-23T19:54:19.244Z,59.79
2023-01-23T19:56:45.988Z,60.01
2023-01-23T19:59:12.833Z,59.86
2023-01-23T20:06:08.084Z,59.68
2023-01-23T20:08:34.901Z,59.65
2023-01-23T20:11:01.813Z,59.42
2023-01-23T20:13:29.162Z,59.29
2023-01-23T20:15:55.975Z,59.48
2023-01-23T20:18:22.660Z,59.45
2023-01-23T20:20:49.651Z,60.00
2023-01-23T20:23:16.468Z,61.50
2023-01-23T20:25:43.225Z,61.69
2023-01-23T20:28:11.300Z,62.18
2023-01-23T20:30:39.362Z,62.17
2023-01-23T20:33:07.515Z,62.46
2023-01-23T20:35:35.559Z,62.71
2023-01-23T20:38:02.569Z,63.10
2023-01-23T20:40:29.438Z,64.06
2023-01-23T20:42:57.016Z,64.54
2023-01-23T20:45:25.711Z,64.92
2023-01-23T20:47:52.572Z,64.92
2023-01-23T20:50:19.327Z,64.66
2023-01-23T20:53:04.568Z,64.57
2023-01-23T20:55:32.099Z,64.24
2023-01-23T20:58:17.734Z,64.15
2023-01-23T21:00:44.666Z,64.63
2023-01-23T21:03:11.423Z,64.59
2023-01-23T21:05:38.147Z,64.87
2023-01-23T21:08:05.007Z,64.65
2023-01-23T21:10:31.700Z,64.56
2023-01-23T21:12:58.299Z,64.60
2023-01-23T21:15:25.042Z,64.41
2023-01-23T21:17:51.678Z,64.40
2023-01-23T21:20:18.397Z,64.42
2023-01-23T21:22:45.123Z,64.33
2023-01-23T21:25:12.402Z,64.15
2023-01-23T21:27:39.008Z,63.96
2023-01-23T21:30:06.292Z,63.47
2023-01-23T21:32:33.022Z,63.35
2023-01-23T21:34:59.567Z,63.65
2023-01-23T21:37:26.162Z,64.01
2023-01-23T21:39:52.884Z,64.42
2023-01-23T21:42:19.499Z,64.37
2023-01-23T21:44:46.119Z,64.45
2023-01-23T21:47:12.725Z,64.34
2023-01-23T21:49:39.213Z,64.23
2023-01-23T21:52:05.940Z,64.40
2023-01-23T21:54:32.571Z,64.52
2023-01-23T21:56:59.421Z,64.79
2023-01-23T22:03:27.787Z,66.57
2023-01-23T22:05:58.262Z,66.38
2023-01-23T22:08:24.828Z,66.30
2023-01-23T22:10:51.471Z,66.35
2023-01-23T22:13:18.091Z,66.59
2023-01-23T22:15:44.716Z,66.87
2023-01-23T22:18:11.308Z,66.94
2023-01-23T22:20:38.511Z,67.11
2023-01-23T22:23:05.132Z,67.16
2023-01-23T22:25:31.756Z,67.39
2023-01-23T22:27:58.302Z,67.61
2023-01-23T22:30:24.996Z,67.44
2023-01-23T22:32:51.489Z,67.49
2023-01-23T22:35:18.107Z,67.71
2023-01-23T22:37:44.727Z,67.97
2023-01-23T22:40:11.610Z,67.81
2023-01-23T22:42:38.336Z,67.81
2023-01-23T22:45:05.486Z,67.63
2023-01-23T22:47:32.091Z,67.46
2023-01-23T22:49:58.663Z,67.31
2023-01-23T22:52:25.387Z,66.83
2023-01-23T22:54:51.939Z,67.08
2023-01-23T22:57:18.545Z,66.79
2023-01-23T22:59:45.135Z,66.96
2023-01-23T23:02:11.754Z,67.12
2023-01-23T23:04:38.390Z,67.08
2023-01-23T23:07:05.019Z,67.23
2023-01-23T23:09:31.568Z,66.99
2023-01-23T23:11:58.231Z,66.82
2023-01-23T23:14:24.915Z,66.65
2023-01-23T23:16:51.460Z,66.76
2023-01-23T23:19:18.031Z,66.80
2023-01-23T23:21:44.618Z,66.88
2023-01-23T23:24:13.604Z,67.12
2023-01-23T23:26:40.647Z,66.73
2023-01-23T23:29:07.326Z,66.45
2023-01-23T23:31:34.058Z,66.22
2023-01-23T23:34:01.049Z,65.95
2023-01-23T23:36:28.006Z,66.15
2023-01-23T23:38:54.666Z,66.13
2023-01-23T23:41:21.315Z,66.01
2023-01-23T23:43:47.937Z,66.15
2023-01-23T23:46:16.069Z,66.42
2023-01-23T23:48:43.876Z,67.01
2023-01-23T23:51:13.984Z,66.96
2023-01-23T23:53:41.249Z,66.71
2023-01-23T23:56:08.871Z,66.94
2023-01-23T23:58:36.828Z,67.17
